sensor_id;sensor_type;location;lat;lon;timestamp;pressure;altitude;pressure_sealevel;temperature
54746;BMP180;40640;48.130;11.356;2022-08-19T00:02:59;95248.00;;;18.20
54746;BMP180;40640;48.130;11.356;2022-08-19T00:07:02;95238.00;;;18.30
54746;BMP180;40640;48.130;11.356;2022-08-19T00:11:05;95235.00;;;18.40
54746;BMP180;40640;48.130;11.356;2022-08-19T00:15:18;95231.00;;;18.30
54746;BMP180;40640;48.130;11.356;2022-08-19T00:19:23;95232.00;;;18.40
54746;BMP180;40640;48.130;11.356;2022-08-19T00:23:26;95220.00;;;18.50
54746;BMP180;40640;48.130;11.356;2022-08-19T00:27:29;95216.00;;;18.50
54746;BMP180;40640;48.130;11.356;2022-08-19T00:31:32;95204.00;;;18.50
54746;BMP180;40640;48.130;11.356;2022-08-19T00:35:37;95198.00;;;18.50
54746;BMP180;40640;48.130;11.356;2022-08-19T00:39:39;95202.00;;;18.50
54746;BMP180;40640;48.130;11.356;2022-08-19T00:43:43;95212.00;;;18.50
54746;BMP180;40640;48.130;11.356;2022-08-19T00:47:45;95210.00;;;18.50
54746;BMP180;40640;48.130;11.356;2022-08-19T00:51:53;95186.00;;;18.50
54746;BMP180;40640;48.130;11.356;2022-08-19T00:55:58;95187.00;;;18.50
54746;BMP180;40640;48.130;11.356;2022-08-19T01:00:05;95191.00;;;18.50
54746;BMP180;40640;48.130;11.356;2022-08-19T01:04:10;95202.00;;;18.50
54746;BMP180;40640;48.130;11.356;2022-08-19T01:08:15;95191.00;;;18.40
54746;BMP180;40640;48.130;11.356;2022-08-19T01:12:18;95180.00;;;18.40
54746;BMP180;40640;48.130;11.356;2022-08-19T01:16:24;95165.00;;;18.50
54746;BMP180;40640;48.130;11.356;2022-08-19T01:20:27;95174.00;;;18.50
54746;BMP180;40640;48.130;11.356;2022-08-19T01:24:31;95187.00;;;18.50
54746;BMP180;40640;48.130;11.356;2022-08-19T01:28:44;95195.00;;;18.50
54746;BMP180;40640;48.130;11.356;2022-08-19T01:32:47;95190.00;;;18.40
54746;BMP180;40640;48.130;11.356;2022-08-19T01:36:50;95195.00;;;18.30
54746;BMP180;40640;48.130;11.356;2022-08-19T01:40:54;95211.00;;;18.30
54746;BMP180;40640;48.130;11.356;2022-08-19T01:44:57;95209.00;;;18.30
54746;BMP180;40640;48.130;11.356;2022-08-19T01:49:00;95215.00;;;18.20
54746;BMP180;40640;48.130;11.356;2022-08-19T01:53:06;95223.00;;;18.20
54746;BMP180;40640;48.130;11.356;2022-08-19T01:57:12;95237.00;;;18.20
54746;BMP180;40640;48.130;11.356;2022-08-19T02:01:16;95210.00;;;18.30
54746;BMP180;40640;48.130;11.356;2022-08-19T02:05:20;95197.00;;;18.20
54746;BMP180;40640;48.130;11.356;2022-08-19T02:09:22;95193.00;;;18.20
54746;BMP180;40640;48.130;11.356;2022-08-19T02:13:27;95194.00;;;18.10
54746;BMP180;40640;48.130;11.356;2022-08-19T02:17:30;95208.00;;;18.10
54746;BMP180;40640;48.130;11.356;2022-08-19T02:21:33;95215.00;;;18.20
54746;BMP180;40640;48.130;11.356;2022-08-19T02:25:36;95225.00;;;18.10
54746;BMP180;40640;48.130;11.356;2022-08-19T02:29:40;95243.00;;;18.20
54746;BMP180;40640;48.130;11.356;2022-08-19T02:33:43;95237.00;;;18.10
54746;BMP180;40640;48.130;11.356;2022-08-19T02:37:47;95228.00;;;18.20
54746;BMP180;40640;48.130;11.356;2022-08-19T02:42:07;95222.00;;;18.20
54746;BMP180;40640;48.130;11.356;2022-08-19T02:46:18;95211.00;;;18.30
54746;BMP180;40640;48.130;11.356;2022-08-19T02:50:22;95184.00;;;18.30
54746;BMP180;40640;48.130;11.356;2022-08-19T02:54:25;95165.00;;;18.20
54746;BMP180;40640;48.130;11.356;2022-08-19T02:58:28;95159.00;;;18.30
54746;BMP180;40640;48.130;11.356;2022-08-19T03:02:33;95163.00;;;18.30
54746;BMP180;40640;48.130;11.356;2022-08-19T03:06:37;95150.00;;;18.30
54746;BMP180;40640;48.130;11.356;2022-08-19T03:10:42;95143.00;;;18.30
54746;BMP180;40640;48.130;11.356;2022-08-19T03:14:46;95157.00;;;18.30
54746;BMP180;40640;48.130;11.356;2022-08-19T03:18:50;95163.00;;;18.30
54746;BMP180;40640;48.130;11.356;2022-08-19T03:22:54;95187.00;;;18.10
54746;BMP180;40640;48.130;11.356;2022-08-19T03:26:57;95204.00;;;18.10
54746;BMP180;40640;48.130;11.356;2022-08-19T03:31:04;95214.00;;;18.00
54746;BMP180;40640;48.130;11.356;2022-08-19T03:35:29;95214.00;;;18.10
54746;BMP180;40640;48.130;11.356;2022-08-19T03:39:32;95211.00;;;18.10
54746;BMP180;40640;48.130;11.356;2022-08-19T03:43:36;95195.00;;;18.10
54746;BMP180;40640;48.130;11.356;2022-08-19T03:47:39;95197.00;;;18.30
54746;BMP180;40640;48.130;11.356;2022-08-19T03:51:44;95190.00;;;18.30
54746;BMP180;40640;48.130;11.356;2022-08-19T03:55:47;95191.00;;;18.40
54746;BMP180;40640;48.130;11.356;2022-08-19T03:59:50;95189.00;;;18.40
54746;BMP180;40640;48.130;11.356;2022-08-19T04:03:53;95188.00;;;18.40
54746;BMP180;40640;48.130;11.356;2022-08-19T04:07:57;95165.00;;;18.50
54746;BMP180;40640;48.130;11.356;2022-08-19T04:12:01;95167.00;;;18.40
54746;BMP180;40640;48.130;11.356;2022-08-19T04:16:05;95171.00;;;18.40
54746;BMP180;40640;48.130;11.356;2022-08-19T04:20:08;95173.00;;;18.30
54746;BMP180;40640;48.130;11.356;2022-08-19T04:24:14;95184.00;;;18.40
54746;BMP180;40640;48.130;11.356;2022-08-19T04:28:17;95186.00;;;18.40
54746;BMP180;40640;48.130;11.356;2022-08-19T04:32:20;95192.00;;;18.40
54746;BMP180;40640;48.130;11.356;2022-08-19T04:36:26;95208.00;;;18.30
54746;BMP180;40640;48.130;11.356;2022-08-19T04:40:31;95214.00;;;18.40
54746;BMP180;40640;48.130;11.356;2022-08-19T04:44:57;95219.00;;;18.40
54746;BMP180;40640;48.130;11.356;2022-08-19T04:49:03;95235.00;;;18.20
54746;BMP180;40640;48.130;11.356;2022-08-19T04:53:14;95236.00;;;18.10
54746;BMP180;40640;48.130;11.356;2022-08-19T04:57:18;95237.00;;;18.10
54746;BMP180;40640;48.130;11.356;2022-08-19T05:01:24;95230.00;;;18.10
54746;BMP180;40640;48.130;11.356;2022-08-19T05:05:27;95245.00;;;18.10
54746;BMP180;40640;48.130;11.356;2022-08-19T05:09:44;95250.00;;;18.20
54746;BMP180;40640;48.130;11.356;2022-08-19T05:14:01;95249.00;;;18.20
54746;BMP180;40640;48.130;11.356;2022-08-19T05:18:04;95242.00;;;18.20
54746;BMP180;40640;48.130;11.356;2022-08-19T05:22:24;95247.00;;;18.20
54746;BMP180;40640;48.130;11.356;2022-08-19T05:26:38;95252.00;;;18.10
54746;BMP180;40640;48.130;11.356;2022-08-19T05:30:42;95247.00;;;18.30
54746;BMP180;40640;48.130;11.356;2022-08-19T05:34:48;95224.00;;;18.40
54746;BMP180;40640;48.130;11.356;2022-08-19T05:38:51;95217.00;;;18.60
54746;BMP180;40640;48.130;11.356;2022-08-19T05:42:54;95220.00;;;18.80
54746;BMP180;40640;48.130;11.356;2022-08-19T05:46:59;95214.00;;;18.90
54746;BMP180;40640;48.130;11.356;2022-08-19T05:51:04;95208.00;;;19.00
54746;BMP180;40640;48.130;11.356;2022-08-19T05:55:07;95214.00;;;18.80
54746;BMP180;40640;48.130;11.356;2022-08-19T05:59:10;95209.00;;;18.90
54746;BMP180;40640;48.130;11.356;2022-08-19T06:03:15;95206.00;;;18.80
54746;BMP180;40640;48.130;11.356;2022-08-19T06:07:19;95218.00;;;18.80
54746;BMP180;40640;48.130;11.356;2022-08-19T06:11:24;95224.00;;;18.90
54746;BMP180;40640;48.130;11.356;2022-08-19T06:15:27;95227.00;;;19.00
54746;BMP180;40640;48.130;11.356;2022-08-19T06:19:31;95244.00;;;18.90
54746;BMP180;40640;48.130;11.356;2022-08-19T06:23:34;95242.00;;;18.70
54746;BMP180;40640;48.130;11.356;2022-08-19T06:27:37;95254.00;;;18.70
54746;BMP180;40640;48.130;11.356;2022-08-19T06:31:55;95255.00;;;18.70
54746;BMP180;40640;48.130;11.356;2022-08-19T06:36:00;95259.00;;;18.60
54746;BMP180;40640;48.130;11.356;2022-08-19T06:40:03;95259.00;;;18.80
54746;BMP180;40640;48.130;11.356;2022-08-19T06:44:07;95250.00;;;18.90
54746;BMP180;40640;48.130;11.356;2022-08-19T06:48:13;95241.00;;;18.90
54746;BMP180;40640;48.130;11.356;2022-08-19T06:52:20;95251.00;;;19.10
54746;BMP180;40640;48.130;11.356;2022-08-19T06:56:30;95247.00;;;19.20
54746;BMP180;40640;48.130;11.356;2022-08-19T07:00:35;95241.00;;;19.30
54746;BMP180;40640;48.130;11.356;2022-08-19T07:04:38;95230.00;;;19.50
54746;BMP180;40640;48.130;11.356;2022-08-19T07:08:45;95239.00;;;19.70
54746;BMP180;40640;48.130;11.356;2022-08-19T07:12:48;95228.00;;;19.80
54746;BMP180;40640;48.130;11.356;2022-08-19T07:16:53;95214.00;;;20.00
54746;BMP180;40640;48.130;11.356;2022-08-19T07:21:03;95223.00;;;20.10
54746;BMP180;40640;48.130;11.356;2022-08-19T07:25:11;95215.00;;;20.00
54746;BMP180;40640;48.130;11.356;2022-08-19T07:29:14;95207.00;;;20.00
54746;BMP180;40640;48.130;11.356;2022-08-19T07:33:19;95198.00;;;20.00
54746;BMP180;40640;48.130;11.356;2022-08-19T07:37:22;95198.00;;;20.00
54746;BMP180;40640;48.130;11.356;2022-08-19T07:41:31;95193.00;;;20.40
54746;BMP180;40640;48.130;11.356;2022-08-19T07:45:34;95198.00;;;20.70
54746;BMP180;40640;48.130;11.356;2022-08-19T07:49:37;95202.00;;;20.70
54746;BMP180;40640;48.130;11.356;2022-08-19T07:53:39;95194.00;;;21.20
54746;BMP180;40640;48.130;11.356;2022-08-19T07:57:44;95210.00;;;21.60
54746;BMP180;40640;48.130;11.356;2022-08-19T08:01:47;95215.00;;;21.10
54746;BMP180;40640;48.130;11.356;2022-08-19T08:05:51;95221.00;;;20.60
54746;BMP180;40640;48.130;11.356;2022-08-19T08:10:12;95213.00;;;20.50
54746;BMP180;40640;48.130;11.356;2022-08-19T08:14:25;95224.00;;;20.20
54746;BMP180;40640;48.130;11.356;2022-08-19T08:18:35;95226.00;;;19.70
54746;BMP180;40640;48.130;11.356;2022-08-19T08:22:44;95237.00;;;19.40
54746;BMP180;40640;48.130;11.356;2022-08-19T08:27:05;95231.00;;;19.30
54746;BMP180;40640;48.130;11.356;2022-08-19T08:31:13;95235.00;;;19.30
54746;BMP180;40640;48.130;11.356;2022-08-19T08:35:18;95239.00;;;19.30
54746;BMP180;40640;48.130;11.356;2022-08-19T08:39:22;95242.00;;;19.40
54746;BMP180;40640;48.130;11.356;2022-08-19T08:43:28;95253.00;;;19.30
54746;BMP180;40640;48.130;11.356;2022-08-19T08:47:35;95251.00;;;19.20
54746;BMP180;40640;48.130;11.356;2022-08-19T08:51:45;95252.00;;;19.10
54746;BMP180;40640;48.130;11.356;2022-08-19T08:56:02;95253.00;;;19.00
54746;BMP180;40640;48.130;11.356;2022-08-19T09:00:11;95266.00;;;19.00
54746;BMP180;40640;48.130;11.356;2022-08-19T09:04:17;95278.00;;;18.80
54746;BMP180;40640;48.130;11.356;2022-08-19T09:08:38;95275.00;;;18.60
54746;BMP180;40640;48.130;11.356;2022-08-19T09:12:53;95273.00;;;18.70
54746;BMP180;40640;48.130;11.356;2022-08-19T09:16:59;95265.00;;;18.80
54746;BMP180;40640;48.130;11.356;2022-08-19T09:21:03;95269.00;;;19.00
54746;BMP180;40640;48.130;11.356;2022-08-19T09:25:08;95269.00;;;19.00
54746;BMP180;40640;48.130;11.356;2022-08-19T09:29:11;95269.00;;;19.10
54746;BMP180;40640;48.130;11.356;2022-08-19T09:33:14;95269.00;;;19.20
54746;BMP180;40640;48.130;11.356;2022-08-19T09:37:18;95266.00;;;19.20
54746;BMP180;40640;48.130;11.356;2022-08-19T09:41:23;95274.00;;;19.00
54746;BMP180;40640;48.130;11.356;2022-08-19T09:45:29;95276.00;;;19.10
54746;BMP180;40640;48.130;11.356;2022-08-19T09:49:32;95274.00;;;19.20
54746;BMP180;40640;48.130;11.356;2022-08-19T09:53:38;95272.00;;;19.30
54746;BMP180;40640;48.130;11.356;2022-08-19T09:57:41;95277.00;;;19.40
54746;BMP180;40640;48.130;11.356;2022-08-19T10:01:44;95276.00;;;19.70
54746;BMP180;40640;48.130;11.356;2022-08-19T10:05:47;95276.00;;;19.60
54746;BMP180;40640;48.130;11.356;2022-08-19T10:09:57;95283.00;;;19.50
54746;BMP180;40640;48.130;11.356;2022-08-19T10:14:00;95276.00;;;19.60
54746;BMP180;40640;48.130;11.356;2022-08-19T10:18:03;95276.00;;;19.70
54746;BMP180;40640;48.130;11.356;2022-08-19T10:22:07;95258.00;;;19.60
54746;BMP180;40640;48.130;11.356;2022-08-19T10:26:16;95267.00;;;19.90
54746;BMP180;40640;48.130;11.356;2022-08-19T10:30:20;95268.00;;;20.00
54746;BMP180;40640;48.130;11.356;2022-08-19T10:34:28;95263.00;;;20.50
54746;BMP180;40640;48.130;11.356;2022-08-19T10:38:31;95256.00;;;21.10
54746;BMP180;40640;48.130;11.356;2022-08-19T10:42:36;95266.00;;;21.70
54746;BMP180;40640;48.130;11.356;2022-08-19T10:46:41;95267.00;;;21.30
54746;BMP180;40640;48.130;11.356;2022-08-19T10:50:49;95257.00;;;21.50
54746;BMP180;40640;48.130;11.356;2022-08-19T10:55:09;95258.00;;;21.90
54746;BMP180;40640;48.130;11.356;2022-08-19T10:59:31;95252.00;;;22.40
54746;BMP180;40640;48.130;11.356;2022-08-19T11:03:36;95246.00;;;22.80
54746;BMP180;40640;48.130;11.356;2022-08-19T11:07:40;95259.00;;;22.70
54746;BMP180;40640;48.130;11.356;2022-08-19T11:11:43;95243.00;;;23.30
54746;BMP180;40640;48.130;11.356;2022-08-19T11:15:47;95241.00;;;23.60
54746;BMP180;40640;48.130;11.356;2022-08-19T11:19:50;95250.00;;;23.50
54746;BMP180;40640;48.130;11.356;2022-08-19T11:23:55;95247.00;;;23.30
54746;BMP180;40640;48.130;11.356;2022-08-19T11:27:58;95249.00;;;23.10
54746;BMP180;40640;48.130;11.356;2022-08-19T11:32:05;95250.00;;;22.90
54746;BMP180;40640;48.130;11.356;2022-08-19T11:36:09;95243.00;;;22.50
54746;BMP180;40640;48.130;11.356;2022-08-19T11:40:15;95254.00;;;23.00
54746;BMP180;40640;48.130;11.356;2022-08-19T11:44:18;95258.00;;;23.40
54746;BMP180;40640;48.130;11.356;2022-08-19T11:48:24;95255.00;;;24.20
54746;BMP180;40640;48.130;11.356;2022-08-19T11:52:27;95256.00;;;24.30
54746;BMP180;40640;48.130;11.356;2022-08-19T11:56:31;95241.00;;;24.50
54746;BMP180;40640;48.130;11.356;2022-08-19T12:00:34;95255.00;;;25.60
54746;BMP180;40640;48.130;11.356;2022-08-19T12:04:39;95258.00;;;25.20
54746;BMP180;40640;48.130;11.356;2022-08-19T12:08:42;95256.00;;;24.50
54746;BMP180;40640;48.130;11.356;2022-08-19T12:12:46;95270.00;;;24.20
54746;BMP180;40640;48.130;11.356;2022-08-19T12:16:59;95280.00;;;23.40
54746;BMP180;40640;48.130;11.356;2022-08-19T12:21:05;95280.00;;;23.00
54746;BMP180;40640;48.130;11.356;2022-08-19T12:25:08;95282.00;;;22.90
54746;BMP180;40640;48.130;11.356;2022-08-19T12:29:11;95287.00;;;22.70
54746;BMP180;40640;48.130;11.356;2022-08-19T12:33:19;95294.00;;;22.90
54746;BMP180;40640;48.130;11.356;2022-08-19T12:37:27;95294.00;;;23.00
54746;BMP180;40640;48.130;11.356;2022-08-19T12:41:29;95298.00;;;22.80
54746;BMP180;40640;48.130;11.356;2022-08-19T12:45:33;95297.00;;;22.90
54746;BMP180;40640;48.130;11.356;2022-08-19T12:49:38;95300.00;;;22.30
54746;BMP180;40640;48.130;11.356;2022-08-19T12:53:56;95321.00;;;21.80
54746;BMP180;40640;48.130;11.356;2022-08-19T12:57:59;95318.00;;;21.70
54746;BMP180;40640;48.130;11.356;2022-08-19T13:02:02;95319.00;;;21.70
54746;BMP180;40640;48.130;11.356;2022-08-19T13:06:08;95304.00;;;21.80
54746;BMP180;40640;48.130;11.356;2022-08-19T13:10:14;95312.00;;;22.00
54746;BMP180;40640;48.130;11.356;2022-08-19T13:14:17;95318.00;;;21.90
54746;BMP180;40640;48.130;11.356;2022-08-19T13:18:20;95316.00;;;21.80
54746;BMP180;40640;48.130;11.356;2022-08-19T13:22:23;95324.00;;;21.90
54746;BMP180;40640;48.130;11.356;2022-08-19T13:26:28;95308.00;;;21.50
54746;BMP180;40640;48.130;11.356;2022-08-19T13:30:31;95300.00;;;22.50
54746;BMP180;40640;48.130;11.356;2022-08-19T13:34:51;95306.00;;;22.60
54746;BMP180;40640;48.130;11.356;2022-08-19T13:38:54;95299.00;;;22.80
54746;BMP180;40640;48.130;11.356;2022-08-19T13:43:00;95302.00;;;23.50
54746;BMP180;40640;48.130;11.356;2022-08-19T13:47:18;95290.00;;;24.00
54746;BMP180;40640;48.130;11.356;2022-08-19T13:51:22;95289.00;;;24.00
54746;BMP180;40640;48.130;11.356;2022-08-19T13:55:26;95288.00;;;23.40
54746;BMP180;40640;48.130;11.356;2022-08-19T13:59:30;95291.00;;;23.00
54746;BMP180;40640;48.130;11.356;2022-08-19T14:03:34;95282.00;;;22.70
54746;BMP180;40640;48.130;11.356;2022-08-19T14:07:37;95293.00;;;24.30
54746;BMP180;40640;48.130;11.356;2022-08-19T14:11:40;95286.00;;;23.20
54746;BMP180;40640;48.130;11.356;2022-08-19T14:15:44;95295.00;;;22.70
54746;BMP180;40640;48.130;11.356;2022-08-19T14:19:48;95304.00;;;22.10
54746;BMP180;40640;48.130;11.356;2022-08-19T14:23:52;95301.00;;;22.10
54746;BMP180;40640;48.130;11.356;2022-08-19T14:27:55;95306.00;;;22.00
54746;BMP180;40640;48.130;11.356;2022-08-19T14:32:00;95305.00;;;21.70
54746;BMP180;40640;48.130;11.356;2022-08-19T14:36:03;95313.00;;;21.50
54746;BMP180;40640;48.130;11.356;2022-08-19T14:40:07;95323.00;;;21.40
54746;BMP180;40640;48.130;11.356;2022-08-19T14:44:11;95327.00;;;21.30
54746;BMP180;40640;48.130;11.356;2022-08-19T14:48:16;95325.00;;;21.30
54746;BMP180;40640;48.130;11.356;2022-08-19T14:52:20;95338.00;;;21.00
54746;BMP180;40640;48.130;11.356;2022-08-19T14:56:25;95335.00;;;20.80
54746;BMP180;40640;48.130;11.356;2022-08-19T15:00:28;95333.00;;;21.10
54746;BMP180;40640;48.130;11.356;2022-08-19T15:04:32;95332.00;;;21.20
54746;BMP180;40640;48.130;11.356;2022-08-19T15:08:36;95334.00;;;21.10
54746;BMP180;40640;48.130;11.356;2022-08-19T15:12:40;95327.00;;;20.90
54746;BMP180;40640;48.130;11.356;2022-08-19T15:16:44;95341.00;;;21.10
54746;BMP180;40640;48.130;11.356;2022-08-19T15:20:48;95343.00;;;20.90
54746;BMP180;40640;48.130;11.356;2022-08-19T15:24:52;95354.00;;;21.00
54746;BMP180;40640;48.130;11.356;2022-08-19T15:28:57;95356.00;;;21.00
54746;BMP180;40640;48.130;11.356;2022-08-19T15:33:01;95348.00;;;20.80
54746;BMP180;40640;48.130;11.356;2022-08-19T15:37:05;95359.00;;;20.90
54746;BMP180;40640;48.130;11.356;2022-08-19T15:41:16;95363.00;;;21.10
54746;BMP180;40640;48.130;11.356;2022-08-19T15:45:26;95356.00;;;20.80
54746;BMP180;40640;48.130;11.356;2022-08-19T15:49:33;95370.00;;;20.60
54746;BMP180;40640;48.130;11.356;2022-08-19T15:53:37;95367.00;;;20.30
54746;BMP180;40640;48.130;11.356;2022-08-19T15:57:42;95374.00;;;20.10
54746;BMP180;40640;48.130;11.356;2022-08-19T16:02:02;95375.00;;;19.90
54746;BMP180;40640;48.130;11.356;2022-08-19T16:06:33;95376.00;;;19.60
54746;BMP180;40640;48.130;11.356;2022-08-19T16:10:38;95379.00;;;19.50
54746;BMP180;40640;48.130;11.356;2022-08-19T16:14:41;95390.00;;;19.50
54746;BMP180;40640;48.130;11.356;2022-08-19T16:18:44;95389.00;;;19.30
54746;BMP180;40640;48.130;11.356;2022-08-19T16:22:48;95379.00;;;19.20
54746;BMP180;40640;48.130;11.356;2022-08-19T16:26:54;95387.00;;;19.20
54746;BMP180;40640;48.130;11.356;2022-08-19T16:30:57;95390.00;;;19.30
54746;BMP180;40640;48.130;11.356;2022-08-19T16:35:02;95391.00;;;19.40
54746;BMP180;40640;48.130;11.356;2022-08-19T16:39:07;95392.00;;;19.40
54746;BMP180;40640;48.130;11.356;2022-08-19T16:43:12;95394.00;;;19.30
54746;BMP180;40640;48.130;11.356;2022-08-19T16:47:14;95399.00;;;19.20
54746;BMP180;40640;48.130;11.356;2022-08-19T16:51:18;95403.00;;;19.10
54746;BMP180;40640;48.130;11.356;2022-08-19T16:55:23;95409.00;;;18.90
54746;BMP180;40640;48.130;11.356;2022-08-19T16:59:29;95407.00;;;19.00
54746;BMP180;40640;48.130;11.356;2022-08-19T17:03:34;95416.00;;;19.00
54746;BMP180;40640;48.130;11.356;2022-08-19T17:07:37;95416.00;;;18.90
54746;BMP180;40640;48.130;11.356;2022-08-19T17:11:40;95422.00;;;18.80
54746;BMP180;40640;48.130;11.356;2022-08-19T17:15:44;95431.00;;;18.90
54746;BMP180;40640;48.130;11.356;2022-08-19T17:19:47;95430.00;;;19.00
54746;BMP180;40640;48.130;11.356;2022-08-19T17:23:50;95430.00;;;18.90
54746;BMP180;40640;48.130;11.356;2022-08-19T17:27:53;95434.00;;;19.00
54746;BMP180;40640;48.130;11.356;2022-08-19T17:31:57;95441.00;;;19.00
54746;BMP180;40640;48.130;11.356;2022-08-19T17:36:01;95448.00;;;18.90
54746;BMP180;40640;48.130;11.356;2022-08-19T17:40:07;95453.00;;;18.90
54746;BMP180;40640;48.130;11.356;2022-08-19T17:44:10;95463.00;;;18.90
54746;BMP180;40640;48.130;11.356;2022-08-19T17:48:15;95448.00;;;18.80
54746;BMP180;40640;48.130;11.356;2022-08-19T17:52:18;95460.00;;;18.70
54746;BMP180;40640;48.130;11.356;2022-08-19T17:56:22;95465.00;;;18.70
54746;BMP180;40640;48.130;11.356;2022-08-19T18:00:25;95470.00;;;18.70
54746;BMP180;40640;48.130;11.356;2022-08-19T18:04:30;95471.00;;;18.60
54746;BMP180;40640;48.130;11.356;2022-08-19T18:08:33;95482.00;;;18.50
54746;BMP180;40640;48.130;11.356;2022-08-19T18:12:37;95483.00;;;18.50
54746;BMP180;40640;48.130;11.356;2022-08-19T18:16:40;95485.00;;;18.50
54746;BMP180;40640;48.130;11.356;2022-08-19T18:20:44;95489.00;;;18.50
54746;BMP180;40640;48.130;11.356;2022-08-19T18:24:47;95490.00;;;18.40
54746;BMP180;40640;48.130;11.356;2022-08-19T18:28:51;95488.00;;;18.30
54746;BMP180;40640;48.130;11.356;2022-08-19T18:32:54;95497.00;;;18.20
54746;BMP180;40640;48.130;11.356;2022-08-19T18:36:58;95492.00;;;18.20
54746;BMP180;40640;48.130;11.356;2022-08-19T18:41:02;95501.00;;;18.20
54746;BMP180;40640;48.130;11.356;2022-08-19T18:45:22;95504.00;;;18.10
54746;BMP180;40640;48.130;11.356;2022-08-19T18:49:44;95510.00;;;18.10
54746;BMP180;40640;48.130;11.356;2022-08-19T18:53:48;95511.00;;;17.90
54746;BMP180;40640;48.130;11.356;2022-08-19T18:57:51;95521.00;;;17.90
54746;BMP180;40640;48.130;11.356;2022-08-19T19:01:56;95519.00;;;17.90
54746;BMP180;40640;48.130;11.356;2022-08-19T19:06:00;95528.00;;;17.80
54746;BMP180;40640;48.130;11.356;2022-08-19T19:10:06;95525.00;;;17.70
54746;BMP180;40640;48.130;11.356;2022-08-19T19:14:11;95537.00;;;17.70
54746;BMP180;40640;48.130;11.356;2022-08-19T19:18:33;95530.00;;;17.70
54746;BMP180;40640;48.130;11.356;2022-08-19T19:22:35;95545.00;;;17.60
54746;BMP180;40640;48.130;11.356;2022-08-19T19:26:40;95548.00;;;17.50
54746;BMP180;40640;48.130;11.356;2022-08-19T19:30:45;95548.00;;;17.50
54746;BMP180;40640;48.130;11.356;2022-08-19T19:34:48;95540.00;;;17.40
54746;BMP180;40640;48.130;11.356;2022-08-19T19:38:51;95539.00;;;17.50
54746;BMP180;40640;48.130;11.356;2022-08-19T19:42:55;95540.00;;;17.40
54746;BMP180;40640;48.130;11.356;2022-08-19T19:47:00;95544.00;;;17.40
54746;BMP180;40640;48.130;11.356;2022-08-19T19:51:04;95543.00;;;17.30
54746;BMP180;40640;48.130;11.356;2022-08-19T19:55:08;95537.00;;;17.20
54746;BMP180;40640;48.130;11.356;2022-08-19T19:59:19;95546.00;;;17.30
54746;BMP180;40640;48.130;11.356;2022-08-19T20:03:23;95560.00;;;17.30
54746;BMP180;40640;48.130;11.356;2022-08-19T20:07:26;95573.00;;;17.40
54746;BMP180;40640;48.130;11.356;2022-08-19T20:11:44;95573.00;;;17.50
54746;BMP180;40640;48.130;11.356;2022-08-19T20:15:49;95576.00;;;17.50
54746;BMP180;40640;48.130;11.356;2022-08-19T20:19:51;95590.00;;;17.50
54746;BMP180;40640;48.130;11.356;2022-08-19T20:23:55;95584.00;;;17.50
54746;BMP180;40640;48.130;11.356;2022-08-19T20:28:10;95593.00;;;17.50
54746;BMP180;40640;48.130;11.356;2022-08-19T20:32:15;95588.00;;;17.40
54746;BMP180;40640;48.130;11.356;2022-08-19T20:36:18;95588.00;;;17.40
54746;BMP180;40640;48.130;11.356;2022-08-19T20:40:20;95593.00;;;17.50
54746;BMP180;40640;48.130;11.356;2022-08-19T20:44:23;95590.00;;;17.50
54746;BMP180;40640;48.130;11.356;2022-08-19T20:48:28;95576.00;;;17.50
54746;BMP180;40640;48.130;11.356;2022-08-19T20:52:31;95597.00;;;17.40
54746;BMP180;40640;48.130;11.356;2022-08-19T20:56:34;95586.00;;;17.40
54746;BMP180;40640;48.130;11.356;2022-08-19T21:00:37;95594.00;;;17.50
54746;BMP180;40640;48.130;11.356;2022-08-19T21:04:41;95589.00;;;17.50
54746;BMP180;40640;48.130;11.356;2022-08-19T21:08:44;95596.00;;;17.40
54746;BMP180;40640;48.130;11.356;2022-08-19T21:12:49;95602.00;;;17.40
54746;BMP180;40640;48.130;11.356;2022-08-19T21:16:53;95599.00;;;17.40
54746;BMP180;40640;48.130;11.356;2022-08-19T21:20:58;95599.00;;;17.50
54746;BMP180;40640;48.130;11.356;2022-08-19T21:25:01;95587.00;;;17.40
54746;BMP180;40640;48.130;11.356;2022-08-19T21:29:04;95590.00;;;17.50
54746;BMP180;40640;48.130;11.356;2022-08-19T21:33:06;95581.00;;;17.50
54746;BMP180;40640;48.130;11.356;2022-08-19T21:37:11;95576.00;;;17.50
54746;BMP180;40640;48.130;11.356;2022-08-19T21:41:26;95582.00;;;17.50
54746;BMP180;40640;48.130;11.356;2022-08-19T21:45:29;95590.00;;;17.50
54746;BMP180;40640;48.130;11.356;2022-08-19T21:49:32;95594.00;;;17.50
54746;BMP180;40640;48.130;11.356;2022-08-19T21:53:36;95592.00;;;17.40
54746;BMP180;40640;48.130;11.356;2022-08-19T21:57:39;95588.00;;;17.40
54746;BMP180;40640;48.130;11.356;2022-08-19T22:01:43;95584.00;;;17.40
54746;BMP180;40640;48.130;11.356;2022-08-19T22:05:54;95585.00;;;17.20
54746;BMP180;40640;48.130;11.356;2022-08-19T22:10:00;95585.00;;;17.20
54746;BMP180;40640;48.130;11.356;2022-08-19T22:14:03;95578.00;;;17.30
54746;BMP180;40640;48.130;11.356;2022-08-19T22:18:08;95585.00;;;17.20
54746;BMP180;40640;48.130;11.356;2022-08-19T22:22:11;95570.00;;;17.20
54746;BMP180;40640;48.130;11.356;2022-08-19T22:26:16;95572.00;;;17.20
54746;BMP180;40640;48.130;11.356;2022-08-19T22:30:21;95576.00;;;17.30
54746;BMP180;40640;48.130;11.356;2022-08-19T22:34:24;95570.00;;;17.30
54746;BMP180;40640;48.130;11.356;2022-08-19T22:38:26;95573.00;;;17.20
54746;BMP180;40640;48.130;11.356;2022-08-19T22:42:31;95568.00;;;17.20
54746;BMP180;40640;48.130;11.356;2022-08-19T22:46:33;95565.00;;;17.20
54746;BMP180;40640;48.130;11.356;2022-08-19T22:50:38;95570.00;;;17.20
54746;BMP180;40640;48.130;11.356;2022-08-19T22:54:41;95568.00;;;17.20
54746;BMP180;40640;48.130;11.356;2022-08-19T22:58:45;95560.00;;;17.20
54746;BMP180;40640;48.130;11.356;2022-08-19T23:02:50;95571.00;;;17.30
54746;BMP180;40640;48.130;11.356;2022-08-19T23:06:53;95577.00;;;17.20
54746;BMP180;40640;48.130;11.356;2022-08-19T23:10:56;95579.00;;;17.20
54746;BMP180;40640;48.130;11.356;2022-08-19T23:15:03;95571.00;;;17.30